sensor_id;sensor_type;location;lat;lon;timestamp;pressure;altitude;pressure_sealevel;temperature;humidity
73624;BME280;61921;53.226;-1.296;2022-08-03T00:00:39;99948.20;;;21.57;69.84
73624;BME280;61921;53.226;-1.296;2022-08-03T00:03:03;99943.10;;;21.53;70.15
73624;BME280;61921;53.226;-1.296;2022-08-03T00:05:29;99935.10;;;21.49;70.49
73624;BME280;61921;53.226;-1.296;2022-08-03T00:07:53;99934.66;;;21.53;70.38
73624;BME280;61921;53.226;-1.296;2022-08-03T00:10:19;99936.42;;;21.47;70.61
73624;BME280;61921;53.226;-1.296;2022-08-03T00:12:44;99936.13;;;21.42;70.72
73624;BME280;61921;53.226;-1.296;2022-08-03T00:15:10;99937.20;;;21.53;70.52
73624;BME280;61921;53.226;-1.296;2022-08-03T00:17:34;99937.93;;;21.58;70.30
73624;BME280;61921;53.226;-1.296;2022-08-03T00:19:59;99934.33;;;21.70;69.95
73624;BME280;61921;53.226;-1.296;2022-08-03T00:22:24;99937.57;;;21.55;70.51
73624;BME280;61921;53.226;-1.296;2022-08-03T00:24:49;99935.41;;;21.58;70.48
73624;BME280;61921;53.226;-1.296;2022-08-03T00:27:14;99930.83;;;21.64;70.30
73624;BME280;61921;53.226;-1.296;2022-08-03T00:29:39;99925.66;;;21.57;70.58
73624;BME280;61921;53.226;-1.296;2022-08-03T00:32:05;99917.70;;;21.53;70.85
73624;BME280;61921;53.226;-1.296;2022-08-03T00:34:30;99917.67;;;21.44;71.27
73624;BME280;61921;53.226;-1.296;2022-08-03T00:36:54;99917.23;;;21.53;70.98
73624;BME280;61921;53.226;-1.296;2022-08-03T00:39:19;99910.70;;;21.44;71.31
73624;BME280;61921;53.226;-1.296;2022-08-03T00:41:44;99909.54;;;21.46;71.34
73624;BME280;61921;53.226;-1.296;2022-08-03T00:44:10;99909.27;;;21.45;71.35
73624;BME280;61921;53.226;-1.296;2022-08-03T00:46:35;99901.82;;;21.43;71.48
73624;BME280;61921;53.226;-1.296;2022-08-03T00:49:00;99896.81;;;21.38;71.64
73624;BME280;61921;53.226;-1.296;2022-08-03T00:51:25;99894.32;;;21.45;71.70
73624;BME280;61921;53.226;-1.296;2022-08-03T00:53:50;99892.30;;;21.25;72.38
73624;BME280;61921;53.226;-1.296;2022-08-03T00:56:16;99891.02;;;21.39;71.96
73624;BME280;61921;53.226;-1.296;2022-08-03T00:58:42;99890.01;;;21.40;72.06
73624;BME280;61921;53.226;-1.296;2022-08-03T01:01:05;99893.31;;;21.36;72.12
73624;BME280;61921;53.226;-1.296;2022-08-03T01:03:30;99880.73;;;21.45;71.72
73624;BME280;61921;53.226;-1.296;2022-08-03T01:06:02;99882.61;;;21.42;71.90
73624;BME280;61921;53.226;-1.296;2022-08-03T01:08:25;99883.92;;;21.36;71.99
73624;BME280;61921;53.226;-1.296;2022-08-03T01:10:53;99887.93;;;21.21;72.53
73624;BME280;61921;53.226;-1.296;2022-08-03T01:13:20;99891.80;;;21.32;72.13
73624;BME280;61921;53.226;-1.296;2022-08-03T01:15:41;99892.29;;;21.23;72.44
73624;BME280;61921;53.226;-1.296;2022-08-03T01:18:06;99887.73;;;21.22;72.48
73624;BME280;61921;53.226;-1.296;2022-08-03T01:20:32;99891.07;;;21.31;72.22
73624;BME280;61921;53.226;-1.296;2022-08-03T01:23:02;99891.97;;;21.29;72.39
73624;BME280;61921;53.226;-1.296;2022-08-03T01:25:27;99887.04;;;21.18;72.65
73624;BME280;61921;53.226;-1.296;2022-08-03T01:27:50;99882.70;;;21.24;72.48
73624;BME280;61921;53.226;-1.296;2022-08-03T01:30:08;99879.54;;;21.22;72.50
73624;BME280;61921;53.226;-1.296;2022-08-03T01:32:41;99882.64;;;21.25;72.39
73624;BME280;61921;53.226;-1.296;2022-08-03T01:35:02;99878.96;;;21.31;72.12
73624;BME280;61921;53.226;-1.296;2022-08-03T01:37:27;99876.56;;;21.33;72.12
73624;BME280;61921;53.226;-1.296;2022-08-03T01:39:48;99880.46;;;21.19;72.74
73624;BME280;61921;53.226;-1.296;2022-08-03T01:42:13;99876.52;;;21.16;72.64
73624;BME280;61921;53.226;-1.296;2022-08-03T01:44:40;99876.70;;;21.17;72.75
73624;BME280;61921;53.226;-1.296;2022-08-03T01:47:04;99874.79;;;21.06;73.00
73624;BME280;61921;53.226;-1.296;2022-08-03T01:49:31;99872.63;;;20.99;73.21
73624;BME280;61921;53.226;-1.296;2022-08-03T01:51:54;99874.12;;;20.95;73.42
73624;BME280;61921;53.226;-1.296;2022-08-03T01:54:19;99871.65;;;20.89;73.47
73624;BME280;61921;53.226;-1.296;2022-08-03T01:56:43;99869.17;;;20.99;73.10
73624;BME280;61921;53.226;-1.296;2022-08-03T01:59:09;99869.98;;;20.91;73.32
73624;BME280;61921;53.226;-1.296;2022-08-03T02:01:35;99875.81;;;21.04;73.08
73624;BME280;61921;53.226;-1.296;2022-08-03T02:03:59;99877.31;;;20.91;73.41
73624;BME280;61921;53.226;-1.296;2022-08-03T02:06:24;99881.19;;;20.93;73.25
73624;BME280;61921;53.226;-1.296;2022-08-03T02:08:50;99884.35;;;20.94;73.23
73624;BME280;61921;53.226;-1.296;2022-08-03T02:11:15;99888.63;;;20.94;73.18
73624;BME280;61921;53.226;-1.296;2022-08-03T02:13:40;99886.29;;;20.99;73.05
73624;BME280;61921;53.226;-1.296;2022-08-03T02:16:06;99883.11;;;21.06;72.67
73624;BME280;61921;53.226;-1.296;2022-08-03T02:18:31;99884.02;;;20.89;72.97
73624;BME280;61921;53.226;-1.296;2022-08-03T02:20:55;99883.24;;;20.97;72.75
73624;BME280;61921;53.226;-1.296;2022-08-03T02:23:20;99886.51;;;21.05;72.53
73624;BME280;61921;53.226;-1.296;2022-08-03T02:25:49;99889.54;;;21.05;72.21
73624;BME280;61921;53.226;-1.296;2022-08-03T02:28:16;99889.58;;;20.97;72.60
73624;BME280;61921;53.226;-1.296;2022-08-03T02:30:38;99892.95;;;21.17;71.96
73624;BME280;61921;53.226;-1.296;2022-08-03T02:33:01;99890.63;;;21.16;71.77
73624;BME280;61921;53.226;-1.296;2022-08-03T02:35:28;99890.67;;;21.17;71.71
73624;BME280;61921;53.226;-1.296;2022-08-03T02:37:55;99892.50;;;21.17;71.57
73624;BME280;61921;53.226;-1.296;2022-08-03T02:40:18;99888.96;;;21.18;71.66
73624;BME280;61921;53.226;-1.296;2022-08-03T02:42:42;99887.86;;;21.24;71.45
73624;BME280;61921;53.226;-1.296;2022-08-03T02:45:09;99881.05;;;21.01;71.58
73624;BME280;61921;53.226;-1.296;2022-08-03T02:47:31;99880.87;;;20.95;71.96
73624;BME280;61921;53.226;-1.296;2022-08-03T02:49:57;99884.13;;;20.94;72.00
73624;BME280;61921;53.226;-1.296;2022-08-03T02:52:24;99887.05;;;20.90;72.15
73624;BME280;61921;53.226;-1.296;2022-08-03T02:54:49;99884.42;;;20.98;71.91
73624;BME280;61921;53.226;-1.296;2022-08-03T02:57:13;99883.37;;;20.98;71.68
73624;BME280;61921;53.226;-1.296;2022-08-03T02:59:38;99889.39;;;21.06;71.61
73624;BME280;61921;53.226;-1.296;2022-08-03T03:02:02;99887.01;;;21.01;71.53
73624;BME280;61921;53.226;-1.296;2022-08-03T03:04:27;99888.19;;;20.94;71.55
73624;BME280;61921;53.226;-1.296;2022-08-03T03:06:52;99886.39;;;20.88;71.85
73624;BME280;61921;53.226;-1.296;2022-08-03T03:09:17;99886.10;;;20.95;71.50
73624;BME280;61921;53.226;-1.296;2022-08-03T03:11:43;99887.46;;;20.92;71.61
73624;BME280;61921;53.226;-1.296;2022-08-03T03:14:09;99883.42;;;20.89;71.50
73624;BME280;61921;53.226;-1.296;2022-08-03T03:16:33;99884.29;;;20.87;71.56
73624;BME280;61921;53.226;-1.296;2022-08-03T03:18:58;99885.69;;;20.81;71.70
73624;BME280;61921;53.226;-1.296;2022-08-03T03:21:22;99892.20;;;20.84;71.51
73624;BME280;61921;53.226;-1.296;2022-08-03T03:23:51;99891.03;;;20.97;71.26
73624;BME280;61921;53.226;-1.296;2022-08-03T03:26:15;99888.31;;;20.96;71.25
73624;BME280;61921;53.226;-1.296;2022-08-03T03:28:39;99886.87;;;20.95;71.04
73624;BME280;61921;53.226;-1.296;2022-08-03T03:31:04;99883.68;;;21.11;70.57
73624;BME280;61921;53.226;-1.296;2022-08-03T03:33:29;99888.09;;;21.11;70.41
73624;BME280;61921;53.226;-1.296;2022-08-03T03:35:54;99885.79;;;20.95;70.56
73624;BME280;61921;53.226;-1.296;2022-08-03T03:38:19;99887.46;;;20.94;70.70
73624;BME280;61921;53.226;-1.296;2022-08-03T03:40:45;99882.27;;;21.02;70.41
73624;BME280;61921;53.226;-1.296;2022-08-03T03:43:10;99880.23;;;21.02;70.17
73624;BME280;61921;53.226;-1.296;2022-08-03T03:45:35;99881.02;;;20.96;70.31
73624;BME280;61921;53.226;-1.296;2022-08-03T03:48:00;99883.85;;;20.94;70.30
73624;BME280;61921;53.226;-1.296;2022-08-03T03:50:26;99887.74;;;20.86;70.66
73624;BME280;61921;53.226;-1.296;2022-08-03T03:52:50;99892.61;;;20.99;70.21
73624;BME280;61921;53.226;-1.296;2022-08-03T03:55:16;99892.83;;;20.83;70.52
73624;BME280;61921;53.226;-1.296;2022-08-03T03:57:41;99895.47;;;20.97;70.20
73624;BME280;61921;53.226;-1.296;2022-08-03T04:00:07;99891.01;;;21.07;69.82
73624;BME280;61921;53.226;-1.296;2022-08-03T04:02:31;99888.11;;;20.92;70.16
73624;BME280;61921;53.226;-1.296;2022-08-03T04:04:56;99882.59;;;21.09;69.57
73624;BME280;61921;53.226;-1.296;2022-08-03T04:07:23;99877.78;;;21.02;69.65
73624;BME280;61921;53.226;-1.296;2022-08-03T04:09:47;99881.85;;;21.01;69.68
73624;BME280;61921;53.226;-1.296;2022-08-03T04:12:12;99886.83;;;21.06;69.49
73624;BME280;61921;53.226;-1.296;2022-08-03T04:14:37;99889.71;;;21.07;69.51
73624;BME280;61921;53.226;-1.296;2022-08-03T04:17:03;99893.93;;;20.90;70.00
73624;BME280;61921;53.226;-1.296;2022-08-03T04:19:31;99890.84;;;20.95;69.92
73624;BME280;61921;53.226;-1.296;2022-08-03T04:21:56;99887.94;;;21.05;69.65
73624;BME280;61921;53.226;-1.296;2022-08-03T04:24:18;99885.74;;;20.90;70.29
73624;BME280;61921;53.226;-1.296;2022-08-03T04:26:44;99884.13;;;20.87;70.12
73624;BME280;61921;53.226;-1.296;2022-08-03T04:29:09;99891.91;;;20.91;70.10
73624;BME280;61921;53.226;-1.296;2022-08-03T04:31:34;99892.17;;;20.91;70.26
73624;BME280;61921;53.226;-1.296;2022-08-03T04:33:58;99894.44;;;20.82;70.46
73624;BME280;61921;53.226;-1.296;2022-08-03T04:36:25;99889.77;;;20.93;70.11
73624;BME280;61921;53.226;-1.296;2022-08-03T04:38:58;99892.55;;;20.99;70.04
73624;BME280;61921;53.226;-1.296;2022-08-03T04:41:13;99895.32;;;21.00;69.88
73624;BME280;61921;53.226;-1.296;2022-08-03T04:43:39;99897.10;;;20.91;70.23
73624;BME280;61921;53.226;-1.296;2022-08-03T04:46:04;99894.11;;;21.04;69.99
73624;BME280;61921;53.226;-1.296;2022-08-03T04:48:29;99894.62;;;21.10;69.95
73624;BME280;61921;53.226;-1.296;2022-08-03T04:50:53;99898.27;;;21.07;69.99
73624;BME280;61921;53.226;-1.296;2022-08-03T04:53:18;99899.70;;;21.15;69.89
73624;BME280;61921;53.226;-1.296;2022-08-03T04:55:44;99900.73;;;21.14;70.18
73624;BME280;61921;53.226;-1.296;2022-08-03T04:58:09;99901.09;;;21.07;70.04
73624;BME280;61921;53.226;-1.296;2022-08-03T05:00:34;99896.95;;;21.07;69.94
73624;BME280;61921;53.226;-1.296;2022-08-03T05:02:59;99898.58;;;21.13;69.77
73624;BME280;61921;53.226;-1.296;2022-08-03T05:05:24;99896.37;;;21.21;69.58
73624;BME280;61921;53.226;-1.296;2022-08-03T05:07:49;99900.18;;;21.19;69.61
73624;BME280;61921;53.226;-1.296;2022-08-03T05:10:14;99900.72;;;21.06;70.29
73624;BME280;61921;53.226;-1.296;2022-08-03T05:12:39;99901.56;;;21.10;70.52
73624;BME280;61921;53.226;-1.296;2022-08-03T05:15:06;99905.13;;;21.00;70.80
73624;BME280;61921;53.226;-1.296;2022-08-03T05:17:29;99913.30;;;20.91;71.33
73624;BME280;61921;53.226;-1.296;2022-08-03T05:19:55;99914.67;;;20.61;72.61
73624;BME280;61921;53.226;-1.296;2022-08-03T05:22:20;99922.94;;;20.79;72.59
73624;BME280;61921;53.226;-1.296;2022-08-03T05:24:45;99923.84;;;20.42;74.69
73624;BME280;61921;53.226;-1.296;2022-08-03T05:27:10;99931.67;;;20.31;76.26
73624;BME280;61921;53.226;-1.296;2022-08-03T05:29:35;99930.01;;;20.20;76.68
73624;BME280;61921;53.226;-1.296;2022-08-03T05:32:00;99934.70;;;20.24;76.40
73624;BME280;61921;53.226;-1.296;2022-08-03T05:34:25;99934.79;;;20.18;77.04
73624;BME280;61921;53.226;-1.296;2022-08-03T05:36:51;99939.29;;;20.25;76.60
73624;BME280;61921;53.226;-1.296;2022-08-03T05:39:15;99942.52;;;20.19;77.01
73624;BME280;61921;53.226;-1.296;2022-08-03T05:41:41;99945.67;;;19.98;77.50
73624;BME280;61921;53.226;-1.296;2022-08-03T05:44:06;99948.59;;;20.03;78.00
73624;BME280;61921;53.226;-1.296;2022-08-03T05:46:31;99944.86;;;19.89;78.83
73624;BME280;61921;53.226;-1.296;2022-08-03T05:48:56;99942.52;;;19.86;79.27
73624;BME280;61921;53.226;-1.296;2022-08-03T05:51:21;99945.63;;;19.78;80.43
73624;BME280;61921;53.226;-1.296;2022-08-03T05:53:46;99947.59;;;19.83;80.52
73624;BME280;61921;53.226;-1.296;2022-08-03T05:56:11;99951.50;;;19.88;81.22
73624;BME280;61921;53.226;-1.296;2022-08-03T05:58:36;99951.54;;;19.85;81.38
73624;BME280;61921;53.226;-1.296;2022-08-03T06:01:02;99951.44;;;19.98;80.89
73624;BME280;61921;53.226;-1.296;2022-08-03T06:03:27;99955.07;;;20.16;80.57
73624;BME280;61921;53.226;-1.296;2022-08-03T06:05:53;99956.63;;;20.14;80.58
73624;BME280;61921;53.226;-1.296;2022-08-03T06:08:17;99957.41;;;20.25;80.21
73624;BME280;61921;53.226;-1.296;2022-08-03T06:10:42;99958.67;;;20.15;80.17
73624;BME280;61921;53.226;-1.296;2022-08-03T06:13:07;99961.46;;;20.27;79.53
73624;BME280;61921;53.226;-1.296;2022-08-03T06:15:32;99963.37;;;20.16;81.09
73624;BME280;61921;53.226;-1.296;2022-08-03T06:17:58;99954.51;;;19.80;81.20
73624;BME280;61921;53.226;-1.296;2022-08-03T06:20:23;99954.69;;;20.18;81.29
73624;BME280;61921;53.226;-1.296;2022-08-03T06:22:48;99962.56;;;20.26;80.93
73624;BME280;61921;53.226;-1.296;2022-08-03T06:25:13;99956.69;;;20.39;79.61
73624;BME280;61921;53.226;-1.296;2022-08-03T06:27:38;99955.45;;;20.27;80.28
73624;BME280;61921;53.226;-1.296;2022-08-03T06:30:04;99955.83;;;20.45;79.66
73624;BME280;61921;53.226;-1.296;2022-08-03T06:32:28;99957.34;;;20.54;79.83
73624;BME280;61921;53.226;-1.296;2022-08-03T06:34:53;99959.20;;;20.76;78.96
73624;BME280;61921;53.226;-1.296;2022-08-03T06:37:18;99960.15;;;20.74;78.96
73624;BME280;61921;53.226;-1.296;2022-08-03T06:39:43;99964.25;;;20.87;78.76
73624;BME280;61921;53.226;-1.296;2022-08-03T06:42:09;99963.04;;;20.77;78.26
73624;BME280;61921;53.226;-1.296;2022-08-03T06:44:34;99965.59;;;20.81;78.15
73624;BME280;61921;53.226;-1.296;2022-08-03T06:46:59;99967.08;;;20.73;78.66
73624;BME280;61921;53.226;-1.296;2022-08-03T06:49:24;99966.61;;;20.80;78.73
73624;BME280;61921;53.226;-1.296;2022-08-03T06:51:49;99964.41;;;20.80;78.35
73624;BME280;61921;53.226;-1.296;2022-08-03T06:54:14;99973.12;;;20.62;79.34
73624;BME280;61921;53.226;-1.296;2022-08-03T06:56:39;99966.74;;;20.61;79.31
73624;BME280;61921;53.226;-1.296;2022-08-03T06:59:04;99971.13;;;20.57;79.10
73624;BME280;61921;53.226;-1.296;2022-08-03T07:01:29;99970.18;;;20.44;79.19
73624;BME280;61921;53.226;-1.296;2022-08-03T07:03:55;99971.11;;;20.53;78.77
73624;BME280;61921;53.226;-1.296;2022-08-03T07:06:20;99973.65;;;20.56;78.83
73624;BME280;61921;53.226;-1.296;2022-08-03T07:08:45;99971.61;;;20.68;79.28
73624;BME280;61921;53.226;-1.296;2022-08-03T07:11:10;99973.93;;;20.54;78.91
73624;BME280;61921;53.226;-1.296;2022-08-03T07:13:35;99978.46;;;20.48;79.21
73624;BME280;61921;53.226;-1.296;2022-08-03T07:16:00;99981.76;;;20.47;79.65
73624;BME280;61921;53.226;-1.296;2022-08-03T07:18:25;99974.30;;;20.50;79.65
73624;BME280;61921;53.226;-1.296;2022-08-03T07:20:50;99980.96;;;20.46;79.21
73624;BME280;61921;53.226;-1.296;2022-08-03T07:23:15;99984.44;;;20.59;79.17
73624;BME280;61921;53.226;-1.296;2022-08-03T07:25:41;99989.83;;;20.78;78.21
73624;BME280;61921;53.226;-1.296;2022-08-03T07:28:06;99994.88;;;21.02;77.42
73624;BME280;61921;53.226;-1.296;2022-08-03T07:30:31;99999.55;;;21.07;76.61
73624;BME280;61921;53.226;-1.296;2022-08-03T07:32:56;100000.63;;;20.99;76.43
73624;BME280;61921;53.226;-1.296;2022-08-03T07:35:21;100002.80;;;21.28;76.50
73624;BME280;61921;53.226;-1.296;2022-08-03T07:37:46;100001.21;;;21.33;76.16
73624;BME280;61921;53.226;-1.296;2022-08-03T07:40:11;100000.06;;;21.63;74.94
73624;BME280;61921;53.226;-1.296;2022-08-03T07:42:36;99998.67;;;21.54;75.13
73624;BME280;61921;53.226;-1.296;2022-08-03T07:45:02;99999.50;;;21.81;72.85
73624;BME280;61921;53.226;-1.296;2022-08-03T07:47:29;100006.74;;;21.80;72.24
73624;BME280;61921;53.226;-1.296;2022-08-03T07:49:52;99999.89;;;21.48;72.74
73624;BME280;61921;53.226;-1.296;2022-08-03T07:52:17;100002.90;;;21.93;72.64
73624;BME280;61921;53.226;-1.296;2022-08-03T07:54:41;100006.17;;;22.12;69.66
73624;BME280;61921;53.226;-1.296;2022-08-03T07:57:06;100001.76;;;22.04;70.24
73624;BME280;61921;53.226;-1.296;2022-08-03T07:59:32;100003.68;;;23.00;67.93
73624;BME280;61921;53.226;-1.296;2022-08-03T08:01:57;100008.10;;;23.19;66.37
73624;BME280;61921;53.226;-1.296;2022-08-03T08:04:22;100004.95;;;23.78;64.27
73624;BME280;61921;53.226;-1.296;2022-08-03T08:06:47;100007.88;;;23.89;63.25
73624;BME280;61921;53.226;-1.296;2022-08-03T08:09:12;100011.16;;;23.39;62.71
73624;BME280;61921;53.226;-1.296;2022-08-03T08:11:38;100011.10;;;23.58;62.50
73624;BME280;61921;53.226;-1.296;2022-08-03T08:14:03;100018.73;;;23.39;61.41
73624;BME280;61921;53.226;-1.296;2022-08-03T08:16:28;100025.03;;;23.24;61.54
73624;BME280;61921;53.226;-1.296;2022-08-03T08:18:53;100024.66;;;22.41;63.89
73624;BME280;61921;53.226;-1.296;2022-08-03T08:21:19;100023.77;;;22.31;64.53
73624;BME280;61921;53.226;-1.296;2022-08-03T08:23:44;100027.79;;;22.75;63.82
73624;BME280;61921;53.226;-1.296;2022-08-03T08:26:09;100026.47;;;22.47;65.45
73624;BME280;61921;53.226;-1.296;2022-08-03T08:28:34;100025.64;;;22.84;63.31
73624;BME280;61921;53.226;-1.296;2022-08-03T08:30:59;100026.23;;;23.33;61.78
73624;BME280;61921;53.226;-1.296;2022-08-03T08:33:24;100025.22;;;23.82;60.93
73624;BME280;61921;53.226;-1.296;2022-08-03T08:35:51;100033.65;;;23.98;60.90
73624;BME280;61921;53.226;-1.296;2022-08-03T08:38:16;100032.93;;;24.28;60.64
73624;BME280;61921;53.226;-1.296;2022-08-03T08:40:41;100034.33;;;23.60;60.99
73624;BME280;61921;53.226;-1.296;2022-08-03T08:43:07;100040.21;;;23.67;60.35
73624;BME280;61921;53.226;-1.296;2022-08-03T08:45:32;100035.38;;;23.14;60.30
73624;BME280;61921;53.226;-1.296;2022-08-03T08:48:00;100030.38;;;23.28;57.79
73624;BME280;61921;53.226;-1.296;2022-08-03T08:50:22;100035.78;;;22.41;60.56
73624;BME280;61921;53.226;-1.296;2022-08-03T08:52:48;100034.07;;;22.39;60.71
73624;BME280;61921;53.226;-1.296;2022-08-03T08:55:14;100035.82;;;22.35;60.71
73624;BME280;61921;53.226;-1.296;2022-08-03T08:57:39;100039.16;;;22.44;59.22
73624;BME280;61921;53.226;-1.296;2022-08-03T09:00:05;100036.88;;;22.37;59.79
73624;BME280;61921;53.226;-1.296;2022-08-03T09:02:29;100032.66;;;23.00;58.19
73624;BME280;61921;53.226;-1.296;2022-08-03T09:04:52;100033.08;;;23.13;56.77
73624;BME280;61921;53.226;-1.296;2022-08-03T09:07:17;100031.90;;;23.39;56.77
73624;BME280;61921;53.226;-1.296;2022-08-03T09:09:42;100035.12;;;22.80;58.58
73624;BME280;61921;53.226;-1.296;2022-08-03T09:12:07;100039.91;;;22.62;58.27
73624;BME280;61921;53.226;-1.296;2022-08-03T09:14:32;100044.69;;;22.47;58.36
73624;BME280;61921;53.226;-1.296;2022-08-03T09:16:59;100056.27;;;22.11;59.79
73624;BME280;61921;53.226;-1.296;2022-08-03T09:19:23;100052.46;;;21.92;59.52
73624;BME280;61921;53.226;-1.296;2022-08-03T09:24:13;100058.49;;;21.68;60.13
73624;BME280;61921;53.226;-1.296;2022-08-03T09:26:39;100057.93;;;21.89;58.24
73624;BME280;61921;53.226;-1.296;2022-08-03T09:29:04;100059.77;;;21.90;58.28
73624;BME280;61921;53.226;-1.296;2022-08-03T09:31:30;100059.06;;;22.48;57.77
73624;BME280;61921;53.226;-1.296;2022-08-03T09:33:53;100056.98;;;22.50;57.21
73624;BME280;61921;53.226;-1.296;2022-08-03T09:36:33;100051.38;;;23.34;55.25
73624;BME280;61921;53.226;-1.296;2022-08-03T09:41:16;100048.76;;;23.55;55.47
73624;BME280;61921;53.226;-1.296;2022-08-03T09:43:44;100054.68;;;23.63;55.42
73624;BME280;61921;53.226;-1.296;2022-08-03T09:46:02;100051.52;;;24.15;53.05
73624;BME280;61921;53.226;-1.296;2022-08-03T09:48:24;100053.18;;;24.20;53.31
73624;BME280;61921;53.226;-1.296;2022-08-03T09:50:50;100048.76;;;24.13;53.15
73624;BME280;61921;53.226;-1.296;2022-08-03T09:53:14;100045.27;;;24.58;53.00
73624;BME280;61921;53.226;-1.296;2022-08-03T09:55:53;100047.21;;;24.47;52.43
73624;BME280;61921;53.226;-1.296;2022-08-03T09:58:06;100055.49;;;24.87;52.07
73624;BME280;61921;53.226;-1.296;2022-08-03T10:00:31;100052.06;;;24.62;52.32
73624;BME280;61921;53.226;-1.296;2022-08-03T10:03:02;100057.53;;;24.72;51.65
73624;BME280;61921;53.226;-1.296;2022-08-03T10:05:30;100047.78;;;25.04;51.59
73624;BME280;61921;53.226;-1.296;2022-08-03T10:07:48;100045.19;;;24.23;52.23
73624;BME280;61921;53.226;-1.296;2022-08-03T10:10:13;100043.08;;;24.62;51.18
73624;BME280;61921;53.226;-1.296;2022-08-03T10:12:38;100046.11;;;25.14;50.87
73624;BME280;61921;53.226;-1.296;2022-08-03T10:15:04;100050.43;;;25.17;49.89
73624;BME280;61921;53.226;-1.296;2022-08-03T10:17:29;100039.46;;;24.80;49.12
73624;BME280;61921;53.226;-1.296;2022-08-03T10:19:55;100049.61;;;24.69;49.18
73624;BME280;61921;53.226;-1.296;2022-08-03T10:22:23;100051.09;;;24.44;49.95
73624;BME280;61921;53.226;-1.296;2022-08-03T10:24:52;100052.43;;;24.47;49.69
73624;BME280;61921;53.226;-1.296;2022-08-03T10:27:13;100056.50;;;24.49;48.83
73624;BME280;61921;53.226;-1.296;2022-08-03T10:29:41;100054.93;;;24.75;48.80
73624;BME280;61921;53.226;-1.296;2022-08-03T10:32:08;100048.42;;;24.98;46.89
73624;BME280;61921;53.226;-1.296;2022-08-03T10:34:33;100053.93;;;25.02;47.00
73624;BME280;61921;53.226;-1.296;2022-08-03T10:36:57;100051.24;;;24.90;47.35
73624;BME280;61921;53.226;-1.296;2022-08-03T10:39:22;100059.86;;;24.79;48.00
73624;BME280;61921;53.226;-1.296;2022-08-03T10:41:48;100057.84;;;25.11;48.26
73624;BME280;61921;53.226;-1.296;2022-08-03T10:44:16;100062.90;;;25.17;46.22
73624;BME280;61921;53.226;-1.296;2022-08-03T10:46:38;100055.57;;;25.27;46.71
73624;BME280;61921;53.226;-1.296;2022-08-03T10:49:04;100061.79;;;25.94;45.02
73624;BME280;61921;53.226;-1.296;2022-08-03T10:51:30;100059.30;;;25.81;44.71
73624;BME280;61921;53.226;-1.296;2022-08-03T10:53:55;100067.78;;;25.85;46.57
73624;BME280;61921;53.226;-1.296;2022-08-03T10:56:38;100072.31;;;25.73;45.96
73624;BME280;61921;53.226;-1.296;2022-08-03T10:58:49;100076.95;;;25.21;44.95
73624;BME280;61921;53.226;-1.296;2022-08-03T11:01:12;100070.44;;;25.07;45.85
73624;BME280;61921;53.226;-1.296;2022-08-03T11:06:14;100074.07;;;25.75;44.67
73624;BME280;61921;53.226;-1.296;2022-08-03T11:08:30;100067.38;;;25.73;45.09
73624;BME280;61921;53.226;-1.296;2022-08-03T11:10:59;100069.85;;;25.86;45.32
73624;BME280;61921;53.226;-1.296;2022-08-03T11:13:22;100063.91;;;25.90;44.42
73624;BME280;61921;53.226;-1.296;2022-08-03T11:15:49;100072.97;;;25.72;44.68
73624;BME280;61921;53.226;-1.296;2022-08-03T11:18:14;100072.77;;;25.27;44.52
73624;BME280;61921;53.226;-1.296;2022-08-03T11:20:45;100068.42;;;25.08;45.31
73624;BME280;61921;53.226;-1.296;2022-08-03T11:23:04;100066.99;;;25.01;45.31
73624;BME280;61921;53.226;-1.296;2022-08-03T11:30:23;100067.37;;;25.83;44.40
73624;BME280;61921;53.226;-1.296;2022-08-03T11:32:53;100068.10;;;26.06;43.97
73624;BME280;61921;53.226;-1.296;2022-08-03T11:35:15;100068.83;;;26.01;43.91
73624;BME280;61921;53.226;-1.296;2022-08-03T11:40:06;100069.35;;;25.88;43.65
73624;BME280;61921;53.226;-1.296;2022-08-03T11:42:41;100076.74;;;26.22;44.42
73624;BME280;61921;53.226;-1.296;2022-08-03T11:44:58;100069.37;;;27.09;43.48
73624;BME280;61921;53.226;-1.296;2022-08-03T11:47:25;100078.95;;;26.76;41.76
73624;BME280;61921;53.226;-1.296;2022-08-03T11:49:50;100080.79;;;25.57;44.13
73624;BME280;61921;53.226;-1.296;2022-08-03T11:52:13;100086.94;;;25.07;44.80
73624;BME280;61921;53.226;-1.296;2022-08-03T11:54:39;100080.05;;;24.57;45.74
73624;BME280;61921;53.226;-1.296;2022-08-03T11:57:04;100073.36;;;24.62;45.88
73624;BME280;61921;53.226;-1.296;2022-08-03T11:59:31;100073.20;;;25.29;46.11
73624;BME280;61921;53.226;-1.296;2022-08-03T12:02:05;100066.80;;;25.85;44.60
73624;BME280;61921;53.226;-1.296;2022-08-03T12:04:22;100069.63;;;26.06;44.45
73624;BME280;61921;53.226;-1.296;2022-08-03T12:06:58;100076.18;;;26.46;44.79
73624;BME280;61921;53.226;-1.296;2022-08-03T12:09:15;100075.21;;;26.76;42.86
73624;BME280;61921;53.226;-1.296;2022-08-03T12:11:39;100075.78;;;26.71;42.48
73624;BME280;61921;53.226;-1.296;2022-08-03T12:14:05;100085.02;;;26.28;43.74
73624;BME280;61921;53.226;-1.296;2022-08-03T12:16:31;100098.16;;;25.85;43.73
73624;BME280;61921;53.226;-1.296;2022-08-03T12:18:58;100081.73;;;26.12;42.97
73624;BME280;61921;53.226;-1.296;2022-08-03T12:21:23;100086.40;;;25.89;44.27
73624;BME280;61921;53.226;-1.296;2022-08-03T12:23:50;100084.21;;;25.48;44.11
73624;BME280;61921;53.226;-1.296;2022-08-03T12:26:14;100089.60;;;26.09;44.12
73624;BME280;61921;53.226;-1.296;2022-08-03T12:28:46;100081.20;;;26.09;43.59
73624;BME280;61921;53.226;-1.296;2022-08-03T12:31:07;100093.38;;;25.92;44.08
73624;BME280;61921;53.226;-1.296;2022-08-03T12:36:05;100093.90;;;25.43;44.51
73624;BME280;61921;53.226;-1.296;2022-08-03T12:38:24;100097.76;;;25.35;44.37
73624;BME280;61921;53.226;-1.296;2022-08-03T12:40:56;100091.67;;;25.17;45.35
73624;BME280;61921;53.226;-1.296;2022-08-03T12:43:15;100090.50;;;24.87;46.40
73624;BME280;61921;53.226;-1.296;2022-08-03T12:45:41;100094.00;;;25.37;45.23
73624;BME280;61921;53.226;-1.296;2022-08-03T12:48:09;100091.25;;;25.19;45.55
73624;BME280;61921;53.226;-1.296;2022-08-03T12:50:34;100084.15;;;25.56;44.88